createdAt,value
2023-03-05T00:02:04.758Z,97618.78
2023-03-05T00:04:51.826Z,97632.69
2023-03-05T00:07:37.408Z,97628.88
2023-03-05T00:10:22.964Z,97597.66
2023-03-05T00:13:08.538Z,97631.88
2023-03-05T00:15:54.473Z,97646.50
2023-03-05T00:18:41.429Z,97570.38
2023-03-05T00:21:32.165Z,97537.06
2023-03-05T00:24:18.770Z,97619.25
2023-03-05T00:27:04.585Z,97415.84
2023-03-05T00:29:50.249Z,97624.81
2023-03-05T00:32:36.414Z,97648.75
2023-03-05T00:35:22.040Z,97609.28
2023-03-05T00:38:07.496Z,97599.88
2023-03-05T00:40:53.132Z,97605.84
2023-03-05T00:43:38.682Z,97567.06
2023-03-05T00:46:26.946Z,97567.69
2023-03-05T00:49:12.684Z,97392.94
2023-03-05T00:51:58.295Z,97582.97
2023-03-05T00:54:43.874Z,97574.22
2023-03-05T00:57:29.927Z,97588.41
2023-03-05T01:00:16.649Z,97598.03
2023-03-05T01:03:02.289Z,97502.47
2023-03-05T01:05:48.007Z,97419.81
2023-03-05T01:08:34.155Z,97545.13
2023-03-05T01:11:19.534Z,97599.38
2023-03-05T01:14:05.220Z,97573.97
2023-03-05T01:16:50.709Z,97600.63
2023-03-05T01:19:36.340Z,97589.28
2023-03-05T01:22:21.581Z,97592.09
2023-03-05T01:25:07.338Z,97568.09
2023-03-05T01:27:52.821Z,97600.03
2023-03-05T01:30:38.401Z,97607.66
2023-03-05T01:33:23.716Z,97632.13
2023-03-05T01:36:13.547Z,97564.06
2023-03-05T01:38:59.240Z,97646.75
2023-03-05T01:41:44.834Z,97405.50
2023-03-05T01:44:30.909Z,97399.44
2023-03-05T01:47:18.186Z,97613.66
2023-03-05T01:50:07.180Z,97607.19
2023-03-05T01:52:59.428Z,97453.84
2023-03-05T01:55:45.406Z,97407.91
2023-03-05T01:58:30.757Z,97646.63
2023-03-05T02:01:17.169Z,97613.63
2023-03-05T02:04:03.277Z,97614.56
2023-03-05T02:06:49.918Z,97585.38
2023-03-05T02:09:39.722Z,97622.44
2023-03-05T02:12:25.934Z,97614.78
2023-03-05T02:15:12.677Z,97613.41
2023-03-05T02:17:58.238Z,97417.53
2023-03-05T02:20:57.263Z,97614.75
2023-03-05T02:23:42.980Z,97563.50
2023-03-05T02:26:28.642Z,97408.72
2023-03-05T02:29:19.173Z,97528.81
2023-03-05T02:32:04.967Z,97618.50
2023-03-05T02:34:50.661Z,97574.97
2023-03-05T02:37:36.742Z,97412.84
2023-03-05T02:40:22.879Z,97617.00
2023-03-05T02:43:09.276Z,97623.09
2023-03-05T02:45:55.188Z,97622.66
2023-03-05T02:48:41.266Z,97623.91
2023-03-05T02:51:29.186Z,97596.06
2023-03-05T02:54:15.056Z,97614.41
2023-03-05T02:57:00.923Z,97419.44
2023-03-05T02:59:46.970Z,97618.78
2023-03-05T03:02:32.538Z,97622.09
2023-03-05T03:05:18.213Z,97595.59
2023-03-05T03:08:04.224Z,97624.88
2023-03-05T03:10:49.891Z,97449.13
2023-03-05T03:13:35.614Z,97628.75
2023-03-05T03:16:21.764Z,97621.38
2023-03-05T03:19:07.686Z,97612.22
2023-03-05T03:21:55.153Z,97602.38
2023-03-05T03:24:41.923Z,97395.66
2023-03-05T03:27:27.629Z,97619.16
2023-03-05T03:30:14.444Z,97620.09
2023-03-05T03:33:00.178Z,97546.34
2023-03-05T03:35:46.509Z,97620.78
2023-03-05T03:38:32.072Z,97595.69
2023-03-05T03:41:18.904Z,97656.25
2023-03-05T03:44:07.145Z,97630.31
2023-03-05T03:46:54.277Z,97631.31
2023-03-05T03:49:39.689Z,97459.53
2023-03-05T03:52:26.494Z,97616.59
2023-03-05T03:55:12.114Z,97623.50
2023-03-05T03:57:57.722Z,97456.59
2023-03-05T04:00:43.254Z,97400.22
2023-03-05T04:03:28.735Z,97451.72
2023-03-05T04:06:15.454Z,97606.72
2023-03-05T04:09:01.040Z,97586.06
2023-03-05T04:11:46.677Z,97617.94
2023-03-05T04:14:32.384Z,97613.97
2023-03-05T04:17:17.715Z,97411.06
2023-03-05T04:20:05.114Z,97622.53
2023-03-05T04:22:50.587Z,97638.53
2023-03-05T04:25:36.033Z,97414.16
2023-03-05T04:28:21.732Z,97405.56
2023-03-05T04:31:07.217Z,97414.16
2023-03-05T04:33:52.786Z,97581.47
2023-03-05T04:36:38.453Z,97580.72
2023-03-05T04:39:24.329Z,97583.97
2023-03-05T04:42:10.629Z,97625.91
2023-03-05T04:44:56.089Z,97586.91
2023-03-05T04:47:42.001Z,97433.41
2023-03-05T04:50:27.378Z,97615.91
2023-03-05T04:53:13.539Z,97638.66
2023-03-05T04:56:01.590Z,97612.97
2023-03-05T04:58:47.660Z,97607.47
2023-03-05T05:01:35.460Z,97403.53
2023-03-05T05:04:21.095Z,97448.41
2023-03-05T05:07:07.842Z,97558.59
2023-03-05T05:09:53.270Z,97632.50
2023-03-05T05:12:38.965Z,97455.31
2023-03-05T05:15:24.605Z,97649.25
2023-03-05T05:18:10.191Z,97453.31
2023-03-05T05:20:56.048Z,97603.44
2023-03-05T05:23:41.803Z,97592.25
2023-03-05T05:26:27.875Z,97623.72
2023-03-05T05:29:15.100Z,97599.91
2023-03-05T05:32:00.683Z,97549.06
2023-03-05T05:34:51.661Z,97614.44
2023-03-05T05:37:37.326Z,97605.59
2023-03-05T05:40:22.879Z,97627.34
2023-03-05T05:43:08.964Z,97418.78
2023-03-05T05:45:54.424Z,97614.00
2023-03-05T05:48:40.323Z,97408.63
2023-03-05T05:51:25.734Z,97616.59
2023-03-05T05:54:15.408Z,97616.47
2023-03-05T05:57:04.209Z,97621.59
2023-03-05T05:59:50.000Z,97422.09
2023-03-05T06:02:41.641Z,97622.53
2023-03-05T06:05:28.069Z,97622.63
2023-03-05T06:08:14.256Z,97621.66
2023-03-05T06:10:59.806Z,97586.03
2023-03-05T06:13:45.962Z,97591.59
2023-03-05T06:16:31.236Z,97623.59
2023-03-05T06:19:17.050Z,97638.97
2023-03-05T06:22:03.078Z,97615.31
2023-03-05T06:24:48.722Z,97460.25
2023-03-05T06:27:38.377Z,97610.78
2023-03-05T06:30:23.912Z,97614.00
2023-03-05T06:33:21.416Z,97613.56
2023-03-05T06:36:19.758Z,97404.22
2023-03-05T06:39:05.452Z,97611.75
2023-03-05T06:41:52.208Z,97550.97
2023-03-05T06:44:40.287Z,97432.78
2023-03-05T06:47:25.547Z,97606.50
2023-03-05T06:50:13.951Z,97627.78
2023-03-05T06:52:59.476Z,97617.31
2023-03-05T06:55:45.521Z,97455.66
2023-03-05T06:58:31.414Z,97615.56
2023-03-05T07:01:16.984Z,97603.69
2023-03-05T07:04:03.380Z,97610.81
2023-03-05T07:06:51.583Z,97608.41
2023-03-05T07:09:57.551Z,97605.19
2023-03-05T07:12:54.455Z,97625.91
2023-03-05T07:16:00.378Z,97597.25
2023-03-05T07:19:00.985Z,97593.75
2023-03-05T07:21:48.190Z,97614.78
2023-03-05T07:24:35.618Z,97586.09
2023-03-05T07:27:26.140Z,97590.47
2023-03-05T07:30:12.995Z,97587.56
2023-03-05T07:32:58.758Z,97525.69
2023-03-05T07:35:44.291Z,97578.00
2023-03-05T07:38:30.035Z,97579.44
2023-03-05T07:41:20.082Z,97394.84
2023-03-05T07:44:06.275Z,97583.31
2023-03-05T07:46:54.240Z,97585.16
2023-03-05T07:49:41.780Z,97573.28
2023-03-05T07:52:35.886Z,97564.88
2023-03-05T07:55:21.560Z,97395.81
2023-03-05T07:58:08.984Z,97582.03
2023-03-05T08:00:54.933Z,97586.78
2023-03-05T08:03:44.697Z,97579.03
2023-03-05T08:06:30.742Z,97573.94
2023-03-05T08:09:17.836Z,97572.69
2023-03-05T08:12:33.969Z,97562.66
2023-03-05T08:15:34.430Z,97558.47
2023-03-05T08:18:45.730Z,97563.75
2023-03-05T08:21:36.786Z,97407.91
2023-03-05T08:24:37.034Z,97492.41
2023-03-05T08:27:40.834Z,97552.06
2023-03-05T08:34:00.210Z,97563.16
2023-03-05T08:37:04.520Z,97436.28
2023-03-05T08:40:02.466Z,97559.66
2023-03-05T08:43:06.932Z,97547.22
2023-03-05T08:46:17.914Z,97557.22
2023-03-05T08:49:12.694Z,97553.38
2023-03-05T08:52:46.460Z,97549.69
2023-03-05T08:55:58.189Z,97553.38
2023-03-05T08:58:56.210Z,97550.84
2023-03-05T09:02:12.499Z,97551.56
2023-03-05T09:04:57.764Z,97528.50
2023-03-05T09:07:55.205Z,97542.84
2023-03-05T09:11:26.929Z,97523.09
2023-03-05T09:14:23.367Z,97545.81
2023-03-05T09:17:31.252Z,97535.97
2023-03-05T09:20:30.310Z,97533.06
2023-03-05T09:23:28.547Z,97528.25
2023-03-05T09:26:21.824Z,97513.28
2023-03-05T09:29:08.940Z,97519.31
2023-03-05T09:31:57.689Z,97517.84
2023-03-05T09:35:11.179Z,97509.66
2023-03-05T09:37:59.400Z,97506.72
2023-03-05T09:41:07.373Z,97513.50
2023-03-05T09:44:14.856Z,97499.63
2023-03-05T09:47:15.436Z,97528.13
2023-03-05T09:50:25.049Z,97498.31
2023-03-05T09:53:22.619Z,97515.44
2023-03-05T10:00:09.176Z,97494.59
2023-03-05T10:03:04.249Z,97477.41
2023-03-05T10:05:58.587Z,97490.59
2023-03-05T10:08:52.131Z,97486.59
2023-03-05T10:12:02.383Z,97510.69
2023-03-05T10:14:50.756Z,97484.00
2023-03-05T10:18:46.718Z,97473.00
2023-03-05T10:21:53.158Z,97491.56
2023-03-05T10:25:11.010Z,97509.31
2023-03-05T10:28:05.922Z,97298.41
2023-03-05T10:31:18.353Z,97447.28
2023-03-05T10:34:49.980Z,97473.25
2023-03-05T10:37:54.625Z,97467.78
2023-03-05T10:41:05.515Z,97472.88
2023-03-05T10:43:57.951Z,97277.13
2023-03-05T10:46:46.005Z,97460.78
2023-03-05T10:49:50.407Z,97459.53
2023-03-05T10:52:50.970Z,97452.59
2023-03-05T10:55:40.329Z,97441.75
2023-03-05T10:58:28.200Z,97488.13
2023-03-05T11:01:15.617Z,97478.09
2023-03-05T11:04:06.854Z,97454.91
2023-03-05T11:06:52.557Z,97449.50
2023-03-05T11:09:38.333Z,97439.66
2023-03-05T11:12:28.124Z,97434.03
2023-03-05T11:15:13.518Z,97459.94
2023-03-05T11:18:25.471Z,97424.94
2023-03-05T11:21:24.818Z,97425.84
2023-03-05T11:24:19.887Z,97389.69
2023-03-05T11:27:32.512Z,97408.16
2023-03-05T11:30:32.574Z,97412.38
2023-03-05T11:33:24.316Z,97273.47
2023-03-05T11:36:35.624Z,97378.41
2023-03-05T11:39:23.905Z,97405.81
2023-03-05T11:42:26.253Z,97366.00
2023-03-05T11:45:17.089Z,97402.19
2023-03-05T11:48:18.864Z,97355.06
2023-03-05T11:51:18.307Z,97371.88
2023-03-05T11:54:08.959Z,97396.19
2023-03-05T11:56:55.321Z,97358.69
2023-03-05T11:59:44.716Z,97372.00
2023-03-05T12:02:30.226Z,97353.19
2023-03-05T12:05:17.413Z,97348.78
2023-03-05T12:08:05.788Z,97318.50
2023-03-05T12:10:53.018Z,97349.47
2023-03-05T12:13:45.335Z,97344.91
2023-03-05T12:16:51.772Z,97340.84
2023-03-05T12:19:41.580Z,97337.00
2023-03-05T12:22:36.594Z,97337.34
2023-03-05T12:25:35.213Z,97296.84
2023-03-05T12:28:55.794Z,97364.44
2023-03-05T12:31:44.287Z,97341.78
2023-03-05T12:34:41.003Z,97158.09
2023-03-05T12:37:28.170Z,97374.00
2023-03-05T12:40:23.049Z,97333.97
2023-03-05T12:43:30.323Z,97370.72
2023-03-05T12:46:23.780Z,97328.16
2023-03-05T12:49:19.129Z,97380.22
2023-03-05T12:52:12.679Z,97340.78
2023-03-05T12:55:15.388Z,97340.38
2023-03-05T12:58:12.498Z,97341.84
2023-03-05T13:01:29.401Z,97328.34
2023-03-05T13:04:21.434Z,97326.91
2023-03-05T13:07:15.152Z,97118.56
2023-03-05T13:10:00.742Z,97319.06
2023-03-05T13:12:55.668Z,97181.47
2023-03-05T13:15:46.454Z,97319.44
2023-03-05T13:18:33.347Z,97137.16
2023-03-05T13:21:24.622Z,97317.78
2023-03-05T13:24:19.785Z,97268.69
2023-03-05T13:27:30.081Z,97313.22
2023-03-05T13:30:31.127Z,97324.72
2023-03-05T13:33:26.029Z,97304.28
2023-03-05T13:36:16.173Z,97306.84
2023-03-05T13:39:04.159Z,97284.78
2023-03-05T13:42:00.915Z,97298.44
2023-03-05T13:45:17.875Z,97328.78
2023-03-05T13:48:07.470Z,97107.63
2023-03-05T13:50:58.769Z,97307.19
2023-03-05T13:53:49.279Z,97272.34
2023-03-05T13:56:35.015Z,97289.28
2023-03-05T13:59:23.042Z,97294.97
2023-03-05T14:02:20.897Z,97292.56
2023-03-05T14:05:15.422Z,97275.03
2023-03-05T14:08:02.005Z,97313.06
2023-03-05T14:10:48.570Z,97257.72
2023-03-05T14:13:35.089Z,97273.75
2023-03-05T14:16:32.662Z,97272.47
2023-03-05T14:19:45.205Z,97260.59
2023-03-05T14:22:37.466Z,97270.25
2023-03-05T14:25:39.988Z,97266.22
2023-03-05T14:28:29.331Z,97230.47
2023-03-05T14:31:18.433Z,97259.28
2023-03-05T14:34:07.300Z,97252.38
2023-03-05T14:36:55.258Z,97102.31
2023-03-05T14:39:51.741Z,97238.69
2023-03-05T14:42:56.513Z,97262.81
2023-03-05T14:45:43.825Z,97102.84
2023-03-05T14:48:29.361Z,97092.28
2023-03-05T14:51:15.145Z,97259.13
2023-03-05T14:54:00.577Z,97263.34
2023-03-05T14:56:46.300Z,97214.25
2023-03-05T14:59:31.955Z,97224.44
2023-03-05T15:02:20.516Z,97209.28
2023-03-05T15:07:59.022Z,97077.69
2023-03-05T15:10:45.122Z,97051.09
2023-03-05T15:13:31.850Z,97245.75
2023-03-05T15:16:19.857Z,97241.75
2023-03-05T15:19:05.896Z,97269.16
2023-03-05T15:21:56.733Z,97243.38
2023-03-05T15:24:42.545Z,97242.81
2023-03-05T15:27:29.556Z,97044.16
2023-03-05T15:30:41.203Z,97058.38
2023-03-05T15:33:28.503Z,97233.34
2023-03-05T15:36:15.593Z,97216.22
2023-03-05T15:39:01.479Z,97254.19
2023-03-05T15:41:47.254Z,97226.97
2023-03-05T15:44:33.533Z,97232.66
2023-03-05T15:47:20.947Z,97231.59
2023-03-05T15:50:23.356Z,97233.78
2023-03-05T15:53:10.369Z,97037.25
2023-03-05T15:55:56.068Z,97184.94
2023-03-05T15:58:43.453Z,97201.34
2023-03-05T16:01:28.906Z,97200.06
2023-03-05T16:04:15.786Z,97245.88
2023-03-05T16:07:03.896Z,97218.09
2023-03-05T16:09:51.138Z,97189.09
2023-03-05T16:12:40.961Z,97083.53
2023-03-05T16:15:33.716Z,97216.97
2023-03-05T16:18:20.318Z,97028.13
2023-03-05T16:21:09.335Z,97219.16
2023-03-05T16:23:54.778Z,97234.47
2023-03-05T16:26:41.942Z,97221.09
2023-03-05T16:29:30.800Z,97221.63
2023-03-05T16:32:17.917Z,97183.34
2023-03-05T16:35:03.665Z,97202.72
2023-03-05T16:37:49.654Z,97206.00
2023-03-05T16:41:06.045Z,97137.06
2023-03-05T16:43:45.640Z,97210.34
2023-03-05T16:46:34.622Z,97200.31
2023-03-05T16:49:21.022Z,97125.97
2023-03-05T16:52:18.261Z,97248.31
2023-03-05T16:55:05.869Z,97244.31
2023-03-05T16:57:51.190Z,97237.34
2023-03-05T17:00:36.707Z,97236.81
2023-03-05T17:03:22.896Z,97221.69
2023-03-05T17:06:12.580Z,97212.94
2023-03-05T17:08:58.856Z,97190.34
2023-03-05T17:11:44.229Z,97036.72
2023-03-05T17:14:30.161Z,97200.78
2023-03-05T17:17:17.109Z,97078.81
2023-03-05T17:20:02.656Z,97217.41
2023-03-05T17:22:48.451Z,97192.22
2023-03-05T17:25:34.056Z,97086.84
2023-03-05T17:28:20.189Z,97168.69
2023-03-05T17:31:06.570Z,97215.97
2023-03-05T17:33:54.812Z,97213.78
2023-03-05T17:36:40.642Z,97117.81
2023-03-05T17:39:26.513Z,97038.63
2023-03-05T17:42:12.061Z,97183.84
2023-03-05T17:44:59.298Z,97219.03
2023-03-05T17:47:44.692Z,97150.22
2023-03-05T17:50:30.726Z,97075.91
2023-03-05T17:53:15.997Z,97220.66
2023-03-05T17:56:02.314Z,97223.00
2023-03-05T17:58:49.890Z,97214.81
2023-03-05T18:01:35.699Z,97222.25
2023-03-05T18:04:21.709Z,97184.44
2023-03-05T18:07:07.414Z,97227.31
2023-03-05T18:09:53.288Z,97244.59
2023-03-05T18:12:39.069Z,97009.50
2023-03-05T18:15:26.167Z,97219.84
2023-03-05T18:18:11.789Z,97036.56
2023-03-05T18:20:57.292Z,97185.91
2023-03-05T18:23:42.872Z,97227.53
2023-03-05T18:26:28.436Z,97258.19
2023-03-05T18:29:13.946Z,97246.53
2023-03-05T18:32:00.608Z,97256.19
2023-03-05T18:34:45.981Z,97060.28
2023-03-05T18:37:31.644Z,97260.03
2023-03-05T18:40:22.931Z,97257.47
2023-03-05T18:43:09.763Z,97282.97
2023-03-05T18:45:55.964Z,97251.59
2023-03-05T18:48:41.279Z,97233.72
2023-03-05T18:51:28.522Z,97226.94
2023-03-05T18:54:14.471Z,97243.13
2023-03-05T18:57:00.270Z,97271.03
2023-03-05T18:59:45.986Z,97213.91
2023-03-05T19:02:31.172Z,97057.22
2023-03-05T19:05:18.526Z,97213.53
2023-03-05T19:08:04.258Z,97205.47
2023-03-05T19:10:49.443Z,97232.16
2023-03-05T19:13:42.147Z,97098.41
2023-03-05T19:16:33.849Z,97035.22
2023-03-05T19:19:24.570Z,97057.84
2023-03-05T19:22:11.525Z,97204.69
2023-03-05T19:24:57.669Z,97239.00
2023-03-05T19:27:43.707Z,97239.41
2023-03-05T19:30:30.490Z,97191.16
2023-03-05T19:33:16.752Z,97241.94
2023-03-05T19:36:02.393Z,97232.06
2023-03-05T19:38:49.625Z,97235.00
2023-03-05T19:41:36.341Z,97235.00
2023-03-05T19:44:22.704Z,97206.13
2023-03-05T19:47:10.619Z,97233.16
2023-03-05T19:49:59.520Z,97230.81
2023-03-05T19:52:45.531Z,97235.00
2023-03-05T19:55:31.242Z,97207.22
2023-03-05T19:58:16.898Z,97241.25
2023-03-05T20:01:15.515Z,97225.06
2023-03-05T20:04:03.315Z,97219.31
2023-03-05T20:06:49.517Z,97200.50
2023-03-05T20:09:35.635Z,97033.81
2023-03-05T20:12:24.326Z,97238.16
2023-03-05T20:15:10.042Z,97228.84
2023-03-05T20:17:58.226Z,97052.06
2023-03-05T20:20:43.838Z,97249.63
2023-03-05T20:23:29.421Z,97235.03
2023-03-05T20:26:14.959Z,97212.03
2023-03-05T20:29:00.356Z,97031.31
2023-03-05T20:31:47.054Z,97223.97
2023-03-05T20:34:32.837Z,97223.38
2023-03-05T20:38:12.836Z,97223.19
2023-03-05T20:41:05.931Z,97219.00
2023-03-05T20:43:52.196Z,97181.00
2023-03-05T20:47:32.357Z,97216.81
2023-03-05T20:50:23.683Z,97217.88
2023-03-05T20:53:09.984Z,97210.25
2023-03-05T20:55:55.685Z,97221.03
2023-03-05T20:58:41.513Z,97203.66
2023-03-05T21:01:28.600Z,97123.63
2023-03-05T21:04:14.459Z,97184.25
2023-03-05T21:07:00.220Z,97192.41
2023-03-05T21:09:45.692Z,97183.50
2023-03-05T21:12:34.539Z,97248.78
2023-03-05T21:15:26.737Z,97237.66
2023-03-05T21:18:12.180Z,97206.13
2023-03-05T21:20:57.824Z,97176.22
2023-03-05T21:23:44.313Z,97199.59
2023-03-05T21:26:30.104Z,97217.34
2023-03-05T21:29:15.616Z,97210.22
2023-03-05T21:32:02.050Z,97012.66
2023-03-05T21:34:47.478Z,97209.16
2023-03-05T21:37:33.029Z,97212.78
2023-03-05T21:40:19.792Z,97205.84
2023-03-05T21:43:05.611Z,97036.38
2023-03-05T21:45:53.696Z,97199.69
2023-03-05T21:48:39.675Z,97194.03
2023-03-05T21:52:09.091Z,97170.44
2023-03-05T21:54:55.989Z,97198.22
2023-03-05T21:57:42.852Z,97191.09
2023-03-05T22:00:28.967Z,97228.78
2023-03-05T22:03:14.710Z,97188.94
2023-03-05T22:06:00.193Z,97155.06
2023-03-05T22:08:49.780Z,97197.06
2023-03-05T22:11:35.335Z,97189.03
2023-03-05T22:14:21.170Z,97015.72
2023-03-05T22:17:06.508Z,97098.44
2023-03-05T22:19:52.060Z,97200.00
2023-03-05T22:22:37.585Z,97130.56
2023-03-05T22:25:23.133Z,97219.88
2023-03-05T22:28:10.663Z,97224.75
2023-03-05T22:30:57.030Z,97209.66
2023-03-05T22:33:42.751Z,97228.38
2023-03-05T22:36:28.262Z,97205.06
2023-03-05T22:39:13.957Z,97016.22
2023-03-05T22:41:59.388Z,97025.66
2023-03-05T22:44:44.813Z,97220.34
2023-03-05T22:47:31.354Z,97196.59
2023-03-05T22:50:17.703Z,97245.47
2023-03-05T22:53:03.601Z,97198.88
2023-03-05T22:55:49.289Z,97174.06
2023-03-05T22:58:35.107Z,97181.59
2023-03-05T23:01:24.236Z,97201.75
2023-03-05T23:04:49.481Z,97186.47
2023-03-05T23:07:38.218Z,97200.91
2023-03-05T23:10:27.396Z,97039.50
2023-03-05T23:13:12.922Z,97168.56
2023-03-05T23:15:58.443Z,97168.56
2023-03-05T23:18:44.055Z,97200.13
2023-03-05T23:21:29.496Z,97218.16
2023-03-05T23:24:15.042Z,97035.50
2023-03-05T23:27:01.026Z,97242.34
2023-03-05T23:30:22.753Z,97217.03
2023-03-05T23:33:15.613Z,97055.94
2023-03-05T23:36:01.384Z,97183.06
2023-03-05T23:38:47.769Z,97191.50
2023-03-05T23:41:33.354Z,97184.94
2023-03-05T23:44:20.653Z,97125.09
2023-03-05T23:47:06.323Z,97226.38
2023-03-05T23:49:53.486Z,97211.44
2023-03-05T23:52:39.001Z,97217.94
2023-03-05T23:55:30.442Z,97207.84
2023-03-05T23:58:17.111Z,96976.34
